Time;durP1;ratioP1;P1;durP2;ratioP2;P2;SDS_P1;SDS_P2;PMS_P1;PMS_P2;Temp;Humidity;BMP_temperature;BMP_pressure;BME280_temperature;BME280_humidity;BME280_pressure;Samples;Min_cycle;Max_cycle;Signal;HPM_P1;HPM_P2
2022/07/09 00:01:03;;;;;;;4.72;2.50;;;;;;;12.19;100.00;101688.25;4933511;28;20046;-81
2022/07/09 00:03:29;;;;;;;4.53;2.60;;;;;;;12.15;100.00;101681.22;4932508;28;20043;-81
2022/07/09 00:05:56;;;;;;;5.13;2.70;;;;;;;12.05;100.00;101682.22;4931712;28;20039;-81
2022/07/09 00:08:23;;;;;;;3.70;2.80;;;;;;;12.00;100.00;101687.53;4912707;28;20125;-81
2022/07/09 00:10:52;;;;;;;4.60;3.03;;;;;;;12.00;100.00;101679.59;4935742;28;20078;-81
2022/07/09 00:13:19;;;;;;;5.35;2.97;;;;;;;12.08;100.00;101680.41;4949880;28;20039;-81
2022/07/09 00:15:46;;;;;;;3.40;2.60;;;;;;;11.96;100.00;101679.66;4933141;28;20065;-81
2022/07/09 00:18:13;;;;;;;4.35;2.70;;;;;;;11.93;100.00;101680.53;4934978;28;20042;-80
2022/07/09 00:20:39;;;;;;;4.43;2.95;;;;;;;11.90;100.00;101671.75;4942861;28;20408;-80
2022/07/09 00:23:06;;;;;;;5.47;2.97;;;;;;;11.93;100.00;101679.66;4929262;28;20043;-81
2022/07/09 00:25:33;;;;;;;3.65;2.67;;;;;;;11.86;100.00;101672.69;4930716;28;20523;-80
2022/07/09 00:28:00;;;;;;;4.25;3.13;;;;;;;11.82;100.00;101671.84;4920483;28;20134;-81
2022/07/09 00:30:29;;;;;;;4.10;2.95;;;;;;;11.78;100.00;101672.75;4953632;28;20046;-81
2022/07/09 00:32:56;;;;;;;5.78;2.95;;;;;;;11.78;100.00;101680.69;4934963;28;20500;-80
2022/07/09 00:35:23;;;;;;;5.63;3.17;;;;;;;11.83;100.00;101686.81;4938182;28;20567;-80
2022/07/09 00:37:50;;;;;;;3.35;3.05;;;;;;;11.86;100.00;101691.25;4938256;28;20058;-82
2022/07/09 00:40:16;;;;;;;7.60;3.08;;;;;;;11.79;100.00;101685.97;4938662;28;20046;-83
2022/07/09 00:42:43;;;;;;;5.82;3.05;;;;;;;11.84;100.00;101694.75;4921493;28;20039;-80
2022/07/09 00:45:10;;;;;;;6.07;3.33;;;;;;;11.92;100.00;101688.50;4918172;28;20047;-81
2022/07/09 00:47:37;;;;;;;6.95;4.25;;;;;;;12.00;100.00;101686.66;4919998;28;20055;-81
2022/07/09 00:50:04;;;;;;;4.93;2.97;;;;;;;11.95;100.00;101684.09;4950700;28;20046;-80
2022/07/09 00:52:32;;;;;;;4.70;2.95;;;;;;;11.93;100.00;101677.91;4941616;28;20914;-80
2022/07/09 00:55:00;;;;;;;4.45;3.53;;;;;;;11.92;100.00;101683.22;4952055;28;20133;-80
2022/07/09 00:57:28;;;;;;;5.45;2.90;;;;;;;11.83;100.00;101682.41;4939367;28;20144;-80
2022/07/09 00:59:57;;;;;;;6.13;3.55;;;;;;;11.81;100.00;101678.91;4970171;28;20035;-81
2022/07/09 01:02:24;;;;;;;5.75;3.10;;;;;;;11.76;100.00;101674.50;4939404;28;20054;-81
2022/07/09 01:04:51;;;;;;;3.80;3.00;;;;;;;11.76;100.00;101679.78;4928338;28;20054;-81
2022/07/09 01:07:18;;;;;;;4.63;2.97;;;;;;;11.80;100.00;101681.56;4916397;28;20130;-80
2022/07/09 01:09:45;;;;;;;5.45;3.55;;;;;;;11.81;100.00;101678.91;4936293;28;20047;-81
2022/07/09 01:12:11;;;;;;;6.65;3.40;;;;;;;11.89;100.00;101677.97;4946933;28;20047;-81
2022/07/09 01:14:38;;;;;;;7.85;3.72;;;;;;;11.86;100.00;101672.69;5007269;23;20062;-81
2022/07/09 01:17:05;;;;;;;5.97;3.20;;;;;;;11.82;100.00;101670.06;4976087;28;20053;-82
2022/07/09 01:19:33;;;;;;;7.18;3.35;;;;;;;11.86;100.00;101668.28;4965543;28;20046;-81
2022/07/09 01:22:00;;;;;;;5.53;3.35;;;;;;;11.79;100.00;101664.78;4971070;28;20042;-82
2022/07/09 01:24:32;;;;;;;7.30;3.67;;;;;;;11.76;100.00;101663.91;4971674;28;20418;-82
2022/07/09 01:27:00;;;;;;;4.10;3.42;;;;;;;11.71;100.00;101665.75;4956809;28;20492;-82
2022/07/09 01:29:27;;;;;;;5.80;3.35;;;;;;;11.71;100.00;101660.44;4973326;28;20062;-81
2022/07/09 01:31:53;;;;;;;7.50;3.38;;;;;;;11.70;100.00;101658.69;4965995;28;20047;-82
2022/07/09 01:34:20;;;;;;;5.78;3.42;;;;;;;11.75;100.00;101664.81;4958035;28;20042;-82
2022/07/09 01:36:47;;;;;;;3.85;3.05;;;;;;;11.78;100.00;101667.44;4977077;28;20054;-81
2022/07/09 01:39:15;;;;;;;5.95;3.45;;;;;;;11.87;100.00;101670.03;4977033;28;20042;-82
2022/07/09 01:41:42;;;;;;;5.80;3.50;;;;;;;11.97;100.00;101668.16;4964754;28;20514;-82
2022/07/09 01:44:08;;;;;;;6.90;3.38;;;;;;;11.95;100.00;101668.19;4967452;28;20125;-81
2022/07/09 01:46:36;;;;;;;5.00;3.58;;;;;;;11.95;100.00;101675.25;4962356;28;20117;-81
2022/07/09 01:49:04;;;;;;;5.85;3.90;;;;;;;12.00;100.00;101666.34;4991849;28;20065;-82
2022/07/09 01:51:34;;;;;;;5.47;3.30;;;;;;;12.07;100.00;101659.22;4958566;28;20154;-81
2022/07/09 01:54:02;;;;;;;5.00;3.50;;;;;;;12.05;100.00;101668.97;4983879;28;20046;-81
2022/07/09 01:56:28;;;;;;;5.50;3.15;;;;;;;12.06;100.00;101655.69;4973643;28;20050;-82
2022/07/09 01:58:55;;;;;;;4.85;3.42;;;;;;;12.08;100.00;101658.34;4981917;28;20254;-81
2022/07/09 02:01:22;;;;;;;9.05;3.60;;;;;;;12.18;100.00;101648.50;4946782;28;20042;-81
2022/07/09 02:03:52;;;;;;;7.47;3.30;;;;;;;12.17;100.00;101649.41;4975519;28;20042;-81
2022/07/09 02:06:18;;;;;;;7.22;4.65;;;;;;;12.14;100.00;101639.72;4975219;28;20434;-81
2022/07/09 02:08:45;;;;;;;9.43;4.28;;;;;;;12.16;100.00;101642.34;4982910;28;20142;-82
2022/07/09 02:11:12;;;;;;;10.00;3.78;;;;;;;12.13;100.00;101647.69;4968537;28;20053;-81
2022/07/09 02:13:39;;;;;;;4.13;3.20;;;;;;;12.06;100.00;101644.22;4949758;28;20046;-81
2022/07/09 02:16:06;;;;;;;5.82;3.30;;;;;;;12.02;100.00;101639.84;4969632;28;20168;-81
2022/07/09 02:18:33;;;;;;;5.55;3.35;;;;;;;12.01;100.00;101641.63;4990283;28;20043;-82
2022/07/09 02:21:00;;;;;;;5.50;3.50;;;;;;;12.00;100.00;101644.28;4967103;28;20045;-81
2022/07/09 02:23:27;;;;;;;4.95;3.63;;;;;;;12.04;100.00;101649.56;4962474;28;20041;-81
2022/07/09 02:25:53;;;;;;;5.18;3.45;;;;;;;12.05;100.00;101643.34;4946456;28;20051;-82
2022/07/09 02:28:20;;;;;;;5.60;3.25;;;;;;;12.08;100.00;101639.78;4985383;28;20490;-81
2022/07/09 02:30:47;;;;;;;6.43;3.78;;;;;;;12.12;100.00;101636.22;4944191;28;20415;-81
2022/07/09 02:33:14;;;;;;;5.30;3.45;;;;;;;12.14;100.00;101637.09;4974325;28;20042;-81
2022/07/09 02:35:40;;;;;;;4.97;3.47;;;;;;;12.19;100.00;101632.63;4965491;28;20039;-81
2022/07/09 02:38:07;;;;;;;4.60;3.42;;;;;;;12.20;100.00;101626.41;4967443;28;20424;-81
2022/07/09 02:40:34;;;;;;;6.45;4.40;;;;;;;12.22;100.00;101627.28;4973805;28;20039;-81
2022/07/09 02:43:01;;;;;;;5.22;3.88;;;;;;;12.25;100.00;101635.19;4978286;28;20567;-81
2022/07/09 02:45:28;;;;;;;6.85;3.22;;;;;;;12.28;100.00;101634.28;4956660;28;20038;-82
2022/07/09 02:47:58;;;;;;;6.80;4.18;;;;;;;12.27;100.00;101628.06;4973383;23;20042;31
2022/07/09 02:50:25;;;;;;;4.68;3.38;;;;;;;12.26;100.00;101623.69;4888864;29;20048;-79
2022/07/09 02:52:51;;;;;;;6.53;3.80;;;;;;;12.26;100.00;101625.44;4918238;29;20051;-79
2022/07/09 02:55:18;;;;;;;7.70;4.18;;;;;;;12.25;100.00;101623.69;4891352;29;20052;-79
2022/07/09 02:57:45;;;;;;;6.47;3.60;;;;;;;12.30;100.00;101617.47;4899990;29;20473;-79
2022/07/09 03:00:11;;;;;;;7.57;3.65;;;;;;;12.28;100.00;101628.97;4921766;29;20036;-79
2022/07/09 03:02:38;;;;;;;8.90;3.65;;;;;;;12.24;100.00;101621.94;4885506;29;20130;-79
2022/07/09 03:05:05;;;;;;;7.45;4.20;;;;;;;12.16;100.00;101624.69;4920864;29;20050;-79
2022/07/09 03:07:32;;;;;;;4.28;3.35;;;;;;;12.18;100.00;101628.19;4922062;29;20035;-79
2022/07/09 03:09:58;;;;;;;6.13;3.65;;;;;;;12.12;100.00;101628.28;4927313;29;20043;-79
2022/07/09 03:12:25;;;;;;;6.18;3.67;;;;;;;12.13;100.00;101624.72;4924489;29;20075;-80
2022/07/09 03:14:52;;;;;;;4.82;3.15;;;;;;;12.11;100.00;101634.47;4925452;29;20062;-80
2022/07/09 03:17:18;;;;;;;5.40;3.40;;;;;;;12.10;100.00;101622.97;4922718;29;20039;-79
2022/07/09 03:19:45;;;;;;;5.40;3.38;;;;;;;12.11;100.00;101622.09;4924218;29;20040;-80
2022/07/09 03:22:12;;;;;;;3.65;3.08;;;;;;;12.09;100.00;101618.56;4922193;29;20595;-79
2022/07/09 03:24:38;;;;;;;5.15;3.50;;;;;;;12.12;100.00;101620.34;4900691;29;20059;-79
2022/07/09 03:27:05;;;;;;;4.68;3.10;;;;;;;12.13;100.00;101619.44;4913877;29;20047;-79
2022/07/09 03:29:32;;;;;;;6.65;3.58;;;;;;;12.13;100.00;101607.97;4926708;29;20047;-79
2022/07/09 03:31:59;;;;;;;8.02;3.80;;;;;;;12.19;100.00;101621.13;4909908;29;20060;-79
2022/07/09 03:34:26;;;;;;;4.50;3.35;;;;;;;12.25;100.00;101607.81;4908517;29;20465;-79
2022/07/09 03:36:52;;;;;;;6.72;3.28;;;;;;;12.30;100.00;101609.50;4924043;29;20039;-79
2022/07/09 03:39:19;;;;;;;5.78;3.42;;;;;;;12.35;100.00;101617.38;4924382;29;20613;-79
2022/07/09 03:41:46;;;;;;;5.82;3.80;;;;;;;12.45;100.00;101612.88;4926174;29;20067;-79
2022/07/09 03:44:12;;;;;;;6.32;3.30;;;;;;;12.49;100.00;101611.91;4912371;29;20040;-79
2022/07/09 03:46:39;;;;;;;6.90;3.67;;;;;;;12.55;100.00;101612.72;4924049;29;20039;-79
2022/07/09 03:49:06;;;;;;;3.70;2.72;;;;;;;12.61;100.00;101614.38;4916385;29;20134;-79
2022/07/09 03:51:33;;;;;;;5.03;2.85;;;;;;;12.69;100.00;101612.50;4920447;29;20044;-79
2022/07/09 03:54:00;;;;;;;4.97;2.80;;;;;;;12.72;100.00;101607.19;4924368;29;20044;-79
2022/07/09 03:56:26;;;;;;;4.00;3.33;;;;;;;12.75;100.00;101614.22;4895898;29;20513;-79
2022/07/09 03:58:53;;;;;;;4.78;3.30;;;;;;;12.79;100.00;101614.16;4925979;29;20428;-79
2022/07/09 04:01:20;;;;;;;4.18;3.33;;;;;;;12.83;100.00;101602.59;4922729;29;20047;-80
2022/07/09 04:03:47;;;;;;;6.57;2.88;;;;;;;12.87;100.00;101599.00;4925843;29;20039;-79
2022/07/09 04:06:14;;;;;;;6.80;3.80;;;;;;;12.99;100.00;101605.91;4912429;29;20052;-79
2022/07/09 04:08:41;;;;;;;5.22;3.00;;;;;;;13.00;100.00;101605.00;4905158;29;20140;-79
2022/07/09 04:11:07;;;;;;;8.15;3.30;;;;;;;13.02;100.00;101597.88;4926467;29;20039;-80
2022/07/09 04:13:35;;;;;;;4.93;3.30;;;;;;;13.08;100.00;101592.50;4912529;29;20122;-79
2022/07/09 04:16:02;;;;;;;6.53;3.33;;;;;;;13.18;100.00;101583.47;4927443;29;20044;-79
2022/07/09 04:18:28;;;;;;;6.40;3.13;;;;;;;13.36;100.00;101584.09;4913532;29;20044;-80
2022/07/09 04:20:56;;;;;;;4.05;3.13;;;;;;;13.42;100.00;101589.31;4923549;29;20111;-80
2022/07/09 04:23:23;;;;;;;5.60;3.00;;;;;;;13.47;100.00;101595.44;4906768;29;20036;-79
2022/07/09 04:25:50;;;;;;;4.88;2.95;;;;;;;13.51;100.00;101592.66;4895649;29;20519;-79
2022/07/09 04:28:18;;;;;;;5.68;3.38;;;;;;;13.60;100.00;101601.38;4910623;29;20059;-79
2022/07/09 04:30:45;;;;;;;6.15;3.03;;;;;;;13.68;100.00;101591.50;4922436;29;20316;-80
2022/07/09 04:33:12;;;;;;;5.03;3.20;;;;;;;13.74;100.00;101586.94;4900269;29;20044;-78
2022/07/09 04:35:39;;;;;;;7.10;3.40;;;;;;;13.89;100.00;101588.44;4923267;29;20043;-80
2022/07/09 04:38:06;;;;;;;6.60;3.35;;;;;;;13.97;100.00;101585.66;4914563;29;20142;-80
2022/07/09 04:40:32;;;;;;;4.95;3.08;;;;;;;14.08;100.00;101588.94;4895102;29;20070;-79
2022/07/09 04:42:59;;;;;;;4.55;3.22;;;;;;;14.11;100.00;101588.88;4946059;29;20135;-79
2022/07/09 04:45:26;;;;;;;5.47;3.08;;;;;;;14.17;100.00;101591.41;4904867;29;20062;-80
2022/07/09 04:47:52;;;;;;;4.97;3.20;;;;;;;14.18;100.00;101593.16;4923478;29;20079;-79
2022/07/09 04:50:19;;;;;;;3.88;2.88;;;;;;;14.19;100.00;101591.38;4917498;29;20127;-79
2022/07/09 04:52:46;;;;;;;5.13;3.00;;;;;;;14.20;100.00;101582.50;4901210;29;20052;-79
2022/07/09 04:55:12;;;;;;;6.00;3.05;;;;;;;14.21;100.00;101589.56;4899944;29;20054;-79
2022/07/09 04:57:39;;;;;;;6.70;3.13;;;;;;;14.19;100.00;101586.06;4899433;29;20040;-80
2022/07/09 05:00:06;;;;;;;3.97;2.90;;;;;;;14.19;100.00;101589.59;4899496;29;20039;-79
2022/07/09 05:02:33;;;;;;;7.35;3.38;;;;;;;14.21;100.00;101589.56;4917078;29;20119;-79
2022/07/09 05:04:59;;;;;;;4.53;3.05;;;;;;;14.10;100.00;101595.09;4915564;29;20045;-79
2022/07/09 05:07:26;;;;;;;5.38;3.20;;;;;;;14.13;100.00;101596.84;4899287;29;20054;-80
2022/07/09 05:09:53;;;;;;;5.90;3.03;;;;;;;14.12;100.00;101589.75;4914263;29;20141;-78
2022/07/09 05:12:20;;;;;;;6.97;2.88;;;;;;;14.27;100.00;101592.97;4898304;29;20036;-79
2022/07/09 05:14:46;;;;;;;6.28;3.55;;;;;;;14.26;100.00;101593.88;4898685;29;20094;-80
2022/07/09 05:17:13;;;;;;;4.95;2.88;;;;;;;14.27;100.00;101594.75;4912842;29;20043;-79
2022/07/09 05:19:40;;;;;;;5.97;3.53;;;;;;;14.38;100.00;101598.09;4914552;29;20040;-78
2022/07/09 05:22:07;;;;;;;11.15;4.03;;;;;;;14.57;100.00;101602.13;4900153;29;20144;-79
2022/07/09 05:24:33;;;;;;;7.97;3.15;;;;;;;14.66;100.00;101597.50;4897269;29;20043;-78
2022/07/09 05:27:00;;;;;;;6.22;3.60;;;;;;;14.63;100.00;101599.34;4912682;29;20135;-79
2022/07/09 05:29:27;;;;;;;3.85;2.78;;;;;;;14.66;100.00;101602.84;4930519;29;20040;-80
2022/07/09 05:31:54;;;;;;;7.00;3.97;;;;;;;14.72;100.00;101592.06;4883551;29;20079;-79
2022/07/09 05:34:20;;;;;;;5.47;2.83;;;;;;;14.75;100.00;101595.50;4899704;29;20044;-78
2022/07/09 05:36:47;;;;;;;6.85;2.85;;;;;;;14.77;100.00;101595.47;4898458;29;20139;-80
2022/07/09 05:39:14;;;;;;;4.85;3.20;;;;;;;14.83;100.00;101582.91;4885120;29;20040;-78
2022/07/09 05:41:41;;;;;;;4.90;2.60;;;;;;;14.83;100.00;101590.03;4898313;29;20164;-78
2022/07/09 05:44:07;;;;;;;5.90;3.25;;;;;;;14.80;100.00;101588.31;4918323;29;20119;-79
2022/07/09 05:46:34;;;;;;;4.45;2.70;;;;;;;14.80;100.00;101596.31;4897901;29;20127;-79
2022/07/09 05:49:01;;;;;;;7.95;4.30;;;;;;;14.84;100.00;101591.75;4898757;29;20040;-79
2022/07/09 05:51:28;;;;;;;3.70;3.03;;;;;;;14.88;100.00;101593.44;4883461;29;20080;-78
2022/07/09 05:53:55;;;;;;;7.70;2.65;;;;;;;14.91;100.00;101590.72;4908698;29;20123;-79
2022/07/09 05:56:21;;;;;;;5.25;3.13;;;;;;;15.01;100.00;101594.91;4913692;29;20046;-78
2022/07/09 05:58:48;;;;;;;6.70;2.88;;;;;;;15.05;100.00;101585.03;4913888;29;20055;-79
2022/07/09 06:01:15;;;;;;;4.07;3.08;;;;;;;15.09;100.00;101576.97;4899814;29;20075;-79
2022/07/09 06:03:42;;;;;;;6.07;3.13;;;;;;;15.30;100.00;101570.25;4900562;29;20510;-80
2022/07/09 06:06:10;;;;;;;4.95;2.63;;;;;;;15.49;100.00;101573.31;4914549;29;20504;-78
2022/07/09 06:08:37;;;;;;;6.40;3.33;;;;;;;15.64;100.00;101578.25;4917526;29;20055;-79
2022/07/09 06:11:04;;;;;;;5.68;2.80;;;;;;;15.67;100.00;101586.16;4898100;29;20048;-78
2022/07/09 06:13:30;;;;;;;4.78;2.58;;;;;;;15.78;100.00;101588.53;4914805;29;20036;-78
2022/07/09 06:15:57;;;;;;;4.80;3.30;;;;;;;15.78;100.00;101583.19;4910049;29;20058;-78
2022/07/09 06:18:24;;;;;;;6.03;3.45;;;;;;;15.85;100.00;101581.25;4899921;29;20074;-79
2022/07/09 06:20:51;;;;;;;4.63;2.67;;;;;;;15.76;100.00;101580.59;4882098;29;20051;-78
2022/07/09 06:23:17;;;;;;;3.90;2.80;;;;;;;15.72;100.00;101573.59;4916337;29;20051;-80
2022/07/09 06:25:44;;;;;;;4.97;3.00;;;;;;;15.83;100.00;101569.75;4880963;29;20505;-78
2022/07/09 06:28:11;;;;;;;4.90;2.92;;;;;;;16.06;100.00;101572.66;4913993;29;20051;-79
2022/07/09 06:30:38;;;;;;;5.75;2.63;;;;;;;16.33;100.00;101565.63;4911373;29;20130;-78
2022/07/09 06:33:04;;;;;;;5.13;3.00;;;;;;;16.46;100.00;101559.00;4898689;29;20051;-79
2022/07/09 06:35:31;;;;;;;4.65;2.80;;;;;;;16.52;97.42;101557.94;4896687;29;20048;-79
2022/07/09 06:37:58;;;;;;;4.32;2.90;;;;;;;16.50;96.60;101558.00;4912754;29;20059;-79
2022/07/09 06:40:24;;;;;;;4.97;2.50;;;;;;;16.43;98.90;101561.78;4912626;29;20056;-79
2022/07/09 06:42:51;;;;;;;4.03;3.10;;;;;;;16.26;97.50;101562.28;4913789;29;20051;-79
2022/07/09 06:45:18;;;;;;;4.53;2.88;;;;;;;16.25;100.00;101560.53;4895089;29;20047;-79
2022/07/09 06:47:45;;;;;;;4.85;2.75;;;;;;;16.27;99.03;101574.69;4897630;29;20040;-80
2022/07/09 06:50:11;;;;;;;3.22;2.50;;;;;;;16.33;100.00;101573.63;4893239;29;21678;-78
2022/07/09 06:52:38;;;;;;;5.32;2.60;;;;;;;16.30;99.86;101563.03;4910714;29;20051;-80
2022/07/09 06:55:05;;;;;;;5.97;2.90;;;;;;;16.33;100.00;101560.31;4912508;29;20036;-80
2022/07/09 06:57:32;;;;;;;3.97;2.78;;;;;;;16.38;99.87;101561.03;4913386;29;20036;-80
2022/07/09 06:59:58;;;;;;;7.95;3.17;;;;;;;16.36;100.00;101575.34;4913832;29;20644;-80
2022/07/09 07:02:25;;;;;;;4.03;2.67;;;;;;;16.30;99.58;101566.59;4898303;29;20040;-79
2022/07/09 07:04:52;;;;;;;4.05;2.58;;;;;;;16.33;100.00;101565.63;4908777;29;20403;-80
2022/07/09 07:07:18;;;;;;;4.93;2.75;;;;;;;16.38;99.63;101563.69;4911256;29;20051;-79
2022/07/09 07:09:45;;;;;;;4.22;2.67;;;;;;;16.53;100.00;101557.91;4912338;29;20051;-80
2022/07/09 07:12:12;;;;;;;4.70;2.78;;;;;;;16.65;99.99;101550.41;4911866;29;20122;-80
2022/07/09 07:14:38;;;;;;;6.32;3.00;;;;;;;16.70;98.04;101553.88;4912602;29;20039;-79
2022/07/09 07:17:05;;;;;;;5.30;3.28;;;;;;;16.91;99.07;101545.19;4899203;29;20216;-79
2022/07/09 07:19:32;;;;;;;4.32;2.63;;;;;;;17.27;94.92;101539.53;4912489;29;20060;-81
2022/07/09 07:21:58;;;;;;;4.22;2.75;;;;;;;17.51;94.95;101533.34;4897249;29;20048;-79
2022/07/09 07:24:25;;;;;;;7.78;2.80;;;;;;;17.68;91.29;101535.41;4912544;29;20040;-78
2022/07/09 07:26:52;;;;;;;4.55;2.90;;;;;;;17.68;90.75;101541.63;4913330;29;20048;-79
2022/07/09 07:29:18;;;;;;;4.80;2.70;;;;;;;17.70;90.71;101538.91;4912447;29;20429;-78
2022/07/09 07:31:45;;;;;;;4.10;2.53;;;;;;;17.39;90.06;101539.97;4895672;29;20047;-79
2022/07/09 07:34:12;;;;;;;6.28;2.78;;;;;;;17.33;91.87;101542.00;4913474;29;20052;-78
2022/07/09 07:36:39;;;;;;;4.53;2.50;;;;;;;17.28;94.93;101538.59;4879884;29;20052;-80
2022/07/09 07:39:05;;;;;;;3.83;2.40;;;;;;;17.17;93.05;101544.31;4914675;29;20052;-79
2022/07/09 07:41:32;;;;;;;3.80;2.38;;;;;;;17.05;94.27;101542.91;4909016;29;20528;-79
2022/07/09 07:43:58;;;;;;;5.63;2.55;;;;;;;16.95;95.46;101535.25;4912305;29;20622;-79
2022/07/09 07:46:25;;;;;;;4.25;2.90;;;;;;;16.79;94.95;101538.44;4926462;29;20111;-79
2022/07/09 07:48:52;;;;;;;3.10;2.17;;;;;;;16.80;97.11;101542.84;4911298;29;20083;-80
2022/07/09 07:51:18;;;;;;;5.20;2.70;;;;;;;16.72;97.37;101544.88;4897078;29;20047;-79
2022/07/09 07:53:45;;;;;;;5.05;2.45;;;;;;;16.69;99.42;101544.97;4911708;29;20044;-79
2022/07/09 07:56:12;;;;;;;4.65;2.40;;;;;;;16.72;100.00;101542.22;4896467;29;20126;-80
2022/07/09 07:58:39;;;;;;;3.10;2.25;;;;;;;16.69;100.00;101547.66;4897605;29;20525;-79
2022/07/09 08:01:05;;;;;;;3.08;2.42;;;;;;;16.53;100.00;101541.88;4911595;29;20131;-80
2022/07/09 08:03:32;;;;;;;2.55;2.35;;;;;;;16.38;100.00;101555.69;4895356;29;20040;-79
2022/07/09 08:06:00;;;;;;;6.00;2.83;;;;;;;16.35;100.00;101541.59;4896805;29;20103;-79
2022/07/09 08:08:27;;;;;;;3.25;2.63;;;;;;;16.37;100.00;101548.59;4897847;29;20040;-80
2022/07/09 08:10:54;;;;;;;6.32;2.67;;;;;;;16.51;100.00;101540.19;4909789;29;20570;-79
2022/07/09 08:13:20;;;;;;;3.25;2.58;;;;;;;16.46;100.00;101544.78;4885117;29;20135;-79
2022/07/09 08:15:47;;;;;;;4.32;2.42;;;;;;;16.44;100.00;101538.63;4894732;29;20620;-79
2022/07/09 08:18:14;;;;;;;3.42;2.25;;;;;;;16.40;100.00;101543.19;4913162;29;20044;-79
2022/07/09 08:20:42;;;;;;;5.03;2.30;;;;;;;16.35;100.00;101547.78;4910807;29;20040;-80
2022/07/09 08:23:09;;;;;;;3.92;2.88;;;;;;;16.35;100.00;101542.47;4911325;29;20044;-82
2022/07/09 08:25:36;;;;;;;4.18;2.25;;;;;;;16.39;100.00;101541.44;4909797;29;20509;-82
2022/07/09 08:28:03;;;;;;;3.92;2.95;;;;;;;16.46;100.00;101544.78;4896290;29;20088;-81
2022/07/09 08:30:30;;;;;;;4.43;2.63;;;;;;;16.52;100.00;101544.59;4894864;29;20037;-81
2022/07/09 08:32:56;;;;;;;3.97;2.13;;;;;;;16.56;100.00;101543.56;4881540;29;20048;-82
2022/07/09 08:35:25;;;;;;;4.47;2.50;;;;;;;16.55;100.00;101542.69;4895327;29;20040;-80
2022/07/09 08:37:53;;;;;;;3.42;2.78;;;;;;;16.62;100.00;101546.06;4895066;29;21950;-81
2022/07/09 08:40:20;;;;;;;5.13;2.42;;;;;;;16.55;100.00;101545.38;4907119;29;20505;-79
2022/07/09 08:42:48;;;;;;;3.38;2.50;;;;;;;16.47;100.00;101544.72;4906219;29;20075;-79
2022/07/09 08:45:16;;;;;;;4.85;3.05;;;;;;;16.35;100.00;101546.91;4906031;29;20128;-82
2022/07/09 08:47:43;;;;;;;6.25;3.05;;;;;;;16.36;100.00;101530.00;4894479;29;20116;-80
2022/07/09 08:50:11;;;;;;;3.92;2.92;;;;;;;16.47;100.00;101525.19;4902279;29;20135;-82
2022/07/09 08:52:40;;;;;;;3.53;2.65;;;;;;;16.58;100.00;101526.63;4886973;29;20489;-81
2022/07/09 08:55:10;;;;;;;4.15;2.80;;;;;;;16.73;100.00;101529.75;4892708;29;20054;-81
2022/07/09 08:57:37;;;;;;;3.80;3.05;;;;;;;16.75;100.00;101530.59;4911148;29;20055;-82
2022/07/09 09:00:05;;;;;;;3.45;2.53;;;;;;;16.78;100.00;101522.47;4924012;29;20054;-81
2022/07/09 09:02:36;;;;;;;6.10;3.17;;;;;;;16.66;100.00;101521.03;4910178;29;20043;-81
2022/07/09 09:05:12;;;;;;;4.47;2.63;;;;;;;16.58;100.00;101528.41;4927838;29;20039;-81
2022/07/09 09:07:39;;;;;;;4.20;2.60;;;;;;;16.55;100.00;101526.69;4906868;29;20039;-82
2022/07/09 09:10:06;;;;;;;7.65;2.80;;;;;;;16.50;100.00;101530.44;4921203;29;20440;-80
2022/07/09 09:12:33;;;;;;;5.03;3.30;;;;;;;16.68;100.00;101531.66;4910342;29;20069;-81
2022/07/09 09:15:04;;;;;;;5.25;2.88;;;;;;;16.68;100.00;101529.88;4912023;29;20118;-81
2022/07/09 09:17:31;;;;;;;6.82;4.13;;;;;;;16.63;100.00;101534.47;4893421;29;20058;-80
2022/07/09 09:19:58;;;;;;;5.53;3.55;;;;;;;16.57;100.00;101534.69;5023984;23;20059;-82
2022/07/09 09:22:24;;;;;;;4.70;3.22;;;;;;;16.43;100.00;101532.44;4935728;28;20239;-81
2022/07/09 09:24:53;;;;;;;5.25;3.25;;;;;;;16.27;100.00;101537.34;4958358;28;20514;-82
2022/07/09 09:27:28;;;;;;;4.88;3.00;;;;;;;16.26;100.00;101535.63;4954559;28;20202;-81
2022/07/09 09:29:57;;;;;;;4.88;2.95;;;;;;;16.22;100.00;101536.59;4959172;28;20102;-82
2022/07/09 09:32:24;;;;;;;3.85;3.15;;;;;;;16.16;100.00;101541.28;4947849;28;20045;-82
2022/07/09 09:34:51;;;;;;;5.28;3.70;;;;;;;16.13;100.00;101546.66;4957451;28;20070;-82
2022/07/09 09:37:29;;;;;;;7.22;3.55;;;;;;;16.00;100.00;101540.84;4975982;28;20058;-81
2022/07/09 09:39:56;;;;;;;5.93;4.05;;;;;;;15.97;100.00;101538.25;4959505;28;20050;-82
2022/07/09 09:42:27;;;;;;;3.55;2.83;;;;;;;15.97;100.00;101524.91;4948581;28;20640;-81
2022/07/09 09:44:57;;;;;;;4.47;3.50;;;;;;;15.98;100.00;101527.56;4938335;28;20054;-82
2022/07/09 09:47:24;;;;;;;6.85;3.13;;;;;;;16.01;100.00;101527.47;4973292;28;20126;-81
2022/07/09 09:49:53;;;;;;;4.88;3.22;;;;;;;16.01;100.00;101524.81;4963920;28;21036;-81
2022/07/09 09:52:20;;;;;;;6.40;3.80;;;;;;;16.03;100.00;101532.75;4975899;28;20051;-81
2022/07/09 09:54:48;;;;;;;7.00;3.83;;;;;;;16.03;100.00;101528.28;4961652;28;20065;-81
2022/07/09 09:57:16;;;;;;;5.65;3.90;;;;;;;16.03;100.00;101530.06;4978317;28;20515;-81
2022/07/09 09:59:47;;;;;;;4.95;3.53;;;;;;;15.99;100.00;101533.78;4976529;28;20097;-82
2022/07/09 10:02:14;;;;;;;5.43;3.95;;;;;;;15.96;100.00;101529.38;4968080;28;20279;-81
2022/07/09 10:04:43;;;;;;;6.28;3.97;;;;;;;15.97;100.00;101523.13;4965747;28;20047;-83
2022/07/09 10:07:14;;;;;;;7.07;4.22;;;;;;;16.03;100.00;101524.75;4968376;28;20137;-81
2022/07/09 10:09:40;;;;;;;5.85;4.68;;;;;;;16.10;100.00;101526.31;4939648;28;20056;-81
2022/07/09 10:12:11;;;;;;;8.95;4.10;;;;;;;16.25;100.00;101515.19;4960784;28;20045;-82
2022/07/09 10:14:39;;;;;;;7.85;4.70;;;;;;;16.31;100.00;101509.69;4965203;28;20723;-81
2022/07/09 10:17:14;;;;;;;7.72;4.55;;;;;;;16.64;100.00;101517.53;4947108;28;20038;-81
2022/07/09 10:19:54;;;;;;;7.15;4.75;;;;;;;16.62;100.00;101508.72;4972838;28;20134;-81
2022/07/09 10:22:22;;;;;;;7.20;4.55;;;;;;;16.78;100.00;101503.78;4980735;28;20042;-82
2022/07/09 10:24:52;;;;;;;9.25;5.55;;;;;;;16.98;100.00;101508.47;4961225;28;20435;-82
2022/07/09 10:27:22;;;;;;;8.75;4.90;;;;;;;16.99;100.00;101503.09;4956746;28;20069;-81
2022/07/09 10:29:53;;;;;;;6.50;4.88;;;;;;;17.10;100.00;101500.06;4956556;28;20034;-82
2022/07/09 10:32:30;;;;;;;8.18;4.75;;;;;;;17.28;100.00;101488.72;4953957;28;20122;-81
2022/07/09 10:35:05;;;;;;;5.53;4.30;;;;;;;17.93;100.00;101489.97;4952548;28;20045;-82
2022/07/09 10:37:33;;;;;;;7.28;4.00;;;;;;;18.32;100.00;101484.00;4940296;28;20066;-80
2022/07/09 10:40:14;;;;;;;8.18;4.78;;;;;;;19.08;100.00;101476.38;4959690;28;20046;-81
2022/07/09 10:42:42;;;;;;;4.70;4.13;;;;;;;19.38;100.00;101471.50;4962427;28;20031;-81
2022/07/09 10:45:21;;;;;;;11.10;4.45;;;;;;;19.57;100.00;101476.94;4942641;28;20056;-80
2022/07/09 10:47:56;;;;;;;5.25;3.63;;;;;;;19.51;100.00;101474.53;4947724;28;20043;-81
2022/07/09 10:50:23;;;;;;;7.15;4.50;;;;;;;19.34;98.25;101480.66;4972389;28;20100;-81
2022/07/09 10:52:51;;;;;;;7.38;4.30;;;;;;;19.12;98.27;101472.66;4955971;28;20074;-81
2022/07/09 10:55:18;;;;;;;5.25;4.35;;;;;;;19.23;100.00;101468.63;4942774;28;20043;-81
2022/07/09 10:57:45;;;;;;;8.15;4.03;;;;;;;19.26;100.00;101465.84;4960088;28;20069;-82
2022/07/09 11:00:17;;;;;;;7.18;3.53;;;;;;;19.68;100.00;101471.13;4976457;28;20035;-81
2022/07/09 11:02:55;;;;;;;5.05;3.33;;;;;;;19.84;96.36;101457.84;4949194;28;20046;-82
2022/07/09 11:05:22;;;;;;;6.70;3.55;;;;;;;20.10;91.43;101452.16;4940938;28;20042;-80
2022/07/09 11:07:57;;;;;;;4.75;3.67;;;;;;;19.79;87.70;101444.69;4946879;28;20050;-80
2022/07/09 11:10:25;;;;;;;3.75;3.10;;;;;;;19.84;89.71;101445.34;4926981;28;20444;-81
2022/07/09 11:12:52;;;;;;;6.10;3.70;;;;;;;20.25;93.42;101446.03;4940918;28;20043;-81
2022/07/09 11:15:20;;;;;;;6.78;2.78;;;;;;;20.62;85.93;101430.88;4939119;28;20034;-81
2022/07/09 11:18:07;;;;;;;4.88;3.47;;;;;;;21.28;81.76;101430.19;4923916;28;20155;-81
2022/07/09 11:20:38;;;;;;;4.68;3.00;;;;;;;21.62;79.33;101422.06;4955909;28;20502;-81